createdAt,value
2018-03-15T00:00:49.650Z,7.47
2018-03-15T00:03:22.340Z,6.70
2018-03-15T00:05:48.718Z,6.73
2018-03-15T00:08:15.209Z,6.30
2018-03-15T00:10:41.606Z,6.10
2018-03-15T00:13:07.965Z,5.73
2018-03-15T00:15:34.370Z,5.60
2018-03-15T00:18:01.042Z,6.33
2018-03-15T00:20:27.541Z,5.73
2018-03-15T00:22:53.879Z,6.00
2018-03-15T00:25:20.278Z,5.50
2018-03-15T00:27:46.643Z,6.60
2018-03-15T00:30:13.030Z,6.63
2018-03-15T00:32:39.401Z,7.23
2018-03-15T00:35:05.794Z,8.60
2018-03-15T00:37:32.268Z,8.73
2018-03-15T00:39:58.649Z,9.43
2018-03-15T00:42:25.034Z,8.80
2018-03-15T00:44:51.422Z,9.83
2018-03-15T00:47:17.847Z,10.17
2018-03-15T00:49:44.282Z,9.40
2018-03-15T00:52:10.670Z,8.57
2018-03-15T00:54:37.084Z,8.10
2018-03-15T00:57:03.565Z,8.40
2018-03-15T00:59:29.949Z,7.53
2018-03-15T01:01:56.382Z,7.93
2018-03-15T01:04:22.778Z,7.30
2018-03-15T01:06:49.194Z,7.37
2018-03-15T01:09:15.601Z,8.00
2018-03-15T01:11:42.076Z,9.00
2018-03-15T01:14:08.800Z,10.27
2018-03-15T01:16:35.305Z,10.93
2018-03-15T01:19:02.541Z,11.40
2018-03-15T01:21:28.909Z,11.93
2018-03-15T01:23:55.383Z,10.83
2018-03-15T01:26:21.780Z,11.10
2018-03-15T01:28:48.145Z,9.87
2018-03-15T01:31:14.546Z,11.10
2018-03-15T01:33:40.872Z,10.17
2018-03-15T01:36:07.249Z,10.17
2018-03-15T01:38:33.589Z,9.33
2018-03-15T01:40:59.978Z,8.83
2018-03-15T01:43:26.381Z,9.43
2018-03-15T01:45:52.786Z,9.23
2018-03-15T01:48:19.212Z,8.00
2018-03-15T01:50:45.602Z,8.83
2018-03-15T01:53:11.985Z,8.73
2018-03-15T01:55:38.391Z,7.80
2018-03-15T01:58:04.806Z,7.50
2018-03-15T02:00:31.195Z,6.70
2018-03-15T02:02:57.610Z,6.27
2018-03-15T02:05:24.009Z,5.60
2018-03-15T02:07:50.384Z,5.67
2018-03-15T02:10:16.827Z,5.83
2018-03-15T02:12:43.223Z,5.60
2018-03-15T02:15:09.658Z,5.87
2018-03-15T02:17:36.128Z,5.50
2018-03-15T02:20:02.732Z,5.23
2018-03-15T02:22:29.141Z,6.23
2018-03-15T02:24:55.577Z,5.60
2018-03-15T02:27:21.922Z,5.60
2018-03-15T02:29:48.294Z,6.03
2018-03-15T02:32:14.692Z,5.73
2018-03-15T02:34:41.122Z,5.93
2018-03-15T02:37:07.495Z,5.90
2018-03-15T02:39:33.930Z,5.37
2018-03-15T02:42:00.338Z,5.30
2018-03-15T02:44:26.695Z,5.17
2018-03-15T02:46:53.094Z,5.40
2018-03-15T02:49:19.473Z,5.03
2018-03-15T02:51:45.925Z,5.13
2018-03-15T02:54:12.313Z,4.70
2018-03-15T02:56:38.749Z,5.60
2018-03-15T02:59:05.262Z,6.13
2018-03-15T03:01:31.753Z,5.30
2018-03-15T03:03:58.191Z,5.30
2018-03-15T03:06:24.544Z,5.27
2018-03-15T03:08:50.945Z,4.90
2018-03-15T03:11:17.334Z,5.10
2018-03-15T03:13:43.726Z,5.20
2018-03-15T03:16:10.375Z,5.03
2018-03-15T03:18:36.757Z,4.93
2018-03-15T03:21:03.151Z,5.00
2018-03-15T03:23:29.538Z,4.70
2018-03-15T03:25:55.922Z,4.67
2018-03-15T03:28:22.279Z,5.40
2018-03-15T03:30:48.680Z,4.40
2018-03-15T03:33:15.167Z,4.70
2018-03-15T03:35:41.681Z,4.60
2018-03-15T03:38:08.086Z,5.10
2018-03-15T03:40:34.531Z,5.00
2018-03-15T03:43:01.057Z,5.33
2018-03-15T03:45:27.458Z,4.87
2018-03-15T03:47:53.886Z,5.17
2018-03-15T03:50:20.374Z,5.20
2018-03-15T03:52:46.799Z,5.53
2018-03-15T03:55:13.209Z,5.53
2018-03-15T03:57:39.653Z,6.07
2018-03-15T04:00:06.161Z,6.70
2018-03-15T04:02:32.557Z,7.10
2018-03-15T04:04:58.961Z,7.20
2018-03-15T04:07:25.323Z,8.83
2018-03-15T04:09:51.738Z,8.23
2018-03-15T04:12:18.148Z,8.80
2018-03-15T04:14:44.584Z,9.63
2018-03-15T04:17:10.989Z,9.43
2018-03-15T04:19:37.426Z,8.97
2018-03-15T04:22:03.866Z,9.07
2018-03-15T04:24:30.221Z,9.77
2018-03-15T04:26:56.622Z,9.90
2018-03-15T04:29:23.182Z,11.50
2018-03-15T04:31:49.526Z,10.17
2018-03-15T04:34:15.922Z,11.17
2018-03-15T04:36:42.307Z,10.67
2018-03-15T04:39:09.032Z,10.63
2018-03-15T04:41:35.389Z,9.83
2018-03-15T04:44:01.770Z,8.63
2018-03-15T04:46:28.151Z,8.60
2018-03-15T04:48:54.551Z,7.97
2018-03-15T04:51:20.901Z,7.70
2018-03-15T04:53:47.241Z,11.93
2018-03-15T04:56:13.625Z,12.93
2018-03-15T04:58:40.035Z,12.03
2018-03-15T05:01:06.389Z,9.87
2018-03-15T05:03:32.903Z,8.80
2018-03-15T05:05:59.286Z,7.80
2018-03-15T05:08:25.668Z,7.63
2018-03-15T05:10:52.059Z,8.30
2018-03-15T05:13:18.550Z,8.53
2018-03-15T05:15:45.005Z,9.73
2018-03-15T05:18:11.391Z,9.93
2018-03-15T05:20:37.802Z,12.10
2018-03-15T05:23:04.205Z,11.57
2018-03-15T05:25:30.600Z,15.00
2018-03-15T05:27:57.236Z,12.37
2018-03-15T05:30:29.378Z,12.33
2018-03-15T05:32:58.042Z,13.20
2018-03-15T05:35:24.869Z,12.63
2018-03-15T05:37:51.281Z,11.07
2018-03-15T05:40:17.690Z,11.30
2018-03-15T05:42:44.106Z,11.07
2018-03-15T05:45:10.446Z,11.20
2018-03-15T05:47:36.815Z,11.50
2018-03-15T05:50:03.305Z,11.47
2018-03-15T05:52:29.768Z,11.37
2018-03-15T05:54:56.274Z,10.53
2018-03-15T05:57:22.757Z,10.33
2018-03-15T05:59:49.122Z,10.00
2018-03-15T06:02:15.500Z,11.53
2018-03-15T06:04:41.902Z,9.13
2018-03-15T06:07:08.275Z,8.90
2018-03-15T06:09:34.718Z,8.73
2018-03-15T06:12:01.376Z,7.77
2018-03-15T06:14:27.737Z,7.80
2018-03-15T06:16:54.371Z,5.87
2018-03-15T06:19:20.824Z,6.00
2018-03-15T06:21:47.262Z,4.80
2018-03-15T06:24:13.825Z,5.33
2018-03-15T06:26:40.342Z,4.80
2018-03-15T06:29:06.730Z,5.20
2018-03-15T06:31:33.130Z,6.13
2018-03-15T06:33:59.552Z,6.33
2018-03-15T06:36:25.967Z,6.23
2018-03-15T06:38:52.353Z,6.10
2018-03-15T06:41:18.783Z,6.97
2018-03-15T06:43:45.179Z,6.57
2018-03-15T06:46:11.594Z,7.13
2018-03-15T06:48:38.080Z,6.90
2018-03-15T06:51:04.483Z,6.73
2018-03-15T06:53:30.993Z,6.53
2018-03-15T06:55:57.375Z,7.27
2018-03-15T06:58:23.933Z,5.07
2018-03-15T07:00:50.386Z,5.13
2018-03-15T07:03:16.786Z,6.27
2018-03-15T07:05:43.189Z,8.47
2018-03-15T07:08:09.597Z,6.60
2018-03-15T07:10:36.087Z,5.33
2018-03-15T07:13:02.486Z,6.00
2018-03-15T07:15:29.097Z,5.03
2018-03-15T07:17:55.502Z,5.73
2018-03-15T07:20:21.913Z,7.20
2018-03-15T07:22:48.362Z,5.53
2018-03-15T07:25:14.741Z,5.83
2018-03-15T07:27:41.134Z,6.20
2018-03-15T07:30:07.547Z,5.27
2018-03-15T07:32:34.038Z,5.47
2018-03-15T07:35:00.423Z,5.00
2018-03-15T07:37:26.876Z,5.50
2018-03-15T07:39:53.291Z,5.80
2018-03-15T07:42:19.673Z,5.43
2018-03-15T07:44:46.104Z,5.43
2018-03-15T07:47:12.553Z,5.57
2018-03-15T07:49:39.035Z,6.40
2018-03-15T07:52:05.557Z,5.47
2018-03-15T07:54:31.951Z,5.73
2018-03-15T07:56:58.313Z,5.70
2018-03-15T07:59:24.801Z,5.60
2018-03-15T08:01:51.267Z,5.63
2018-03-15T08:04:17.717Z,5.27
2018-03-15T08:06:44.178Z,5.97
2018-03-15T08:09:10.585Z,4.93
2018-03-15T08:11:36.997Z,5.47
2018-03-15T08:14:03.371Z,5.93
2018-03-15T08:16:29.987Z,5.07
2018-03-15T08:18:56.404Z,5.30
2018-03-15T08:21:22.854Z,5.40
2018-03-15T08:23:49.254Z,5.30
2018-03-15T08:26:15.707Z,5.17
2018-03-15T08:28:42.188Z,5.10
2018-03-15T08:31:08.686Z,5.30
2018-03-15T08:33:35.082Z,5.33
2018-03-15T08:36:01.506Z,5.73
2018-03-15T08:38:27.947Z,5.57
2018-03-15T08:40:54.394Z,6.00
2018-03-15T08:43:20.859Z,5.27
2018-03-15T08:45:47.242Z,6.40
2018-03-15T08:48:13.622Z,6.27
2018-03-15T08:50:40.054Z,7.67
2018-03-15T08:53:06.567Z,11.17
2018-03-15T08:55:32.972Z,39.57
2018-03-15T08:57:59.352Z,11.57
2018-03-15T09:00:26.104Z,7.00
2018-03-15T09:02:52.557Z,6.33
2018-03-15T09:05:19.055Z,6.07
2018-03-15T09:07:45.963Z,6.23
2018-03-15T09:10:12.282Z,5.87
2018-03-15T09:12:38.709Z,6.17
2018-03-15T09:15:05.206Z,6.50
2018-03-15T09:17:31.616Z,5.87
2018-03-15T09:19:58.150Z,6.30
2018-03-15T09:22:24.671Z,7.27
2018-03-15T09:24:51.062Z,5.77
2018-03-15T09:27:17.506Z,5.90
2018-03-15T09:29:43.971Z,6.07
2018-03-15T09:32:10.753Z,5.57
2018-03-15T09:34:37.206Z,5.90
2018-03-15T09:37:03.728Z,5.17
2018-03-15T09:39:30.569Z,5.90
2018-03-15T09:41:57.157Z,5.73
2018-03-15T09:44:23.578Z,6.40
2018-03-15T09:46:50.054Z,5.57
2018-03-15T09:49:16.486Z,6.10
2018-03-15T09:51:42.854Z,5.63
2018-03-15T09:54:09.277Z,5.50
2018-03-15T09:56:35.679Z,5.53
2018-03-15T09:59:02.070Z,5.43
2018-03-15T10:01:28.650Z,5.90
2018-03-15T10:03:55.146Z,6.13
2018-03-15T10:06:21.538Z,6.20
2018-03-15T10:08:48.271Z,5.43
2018-03-15T10:11:14.749Z,6.00
2018-03-15T10:13:41.294Z,5.70
2018-03-15T10:16:07.757Z,6.07
2018-03-15T10:18:34.141Z,5.43
2018-03-15T10:21:00.730Z,5.40
2018-03-15T10:23:27.194Z,5.37
2018-03-15T10:25:53.649Z,4.90
2018-03-15T10:28:20.394Z,5.47
2018-03-15T10:30:46.819Z,5.63
2018-03-15T10:33:19.222Z,6.20
2018-03-15T10:35:45.758Z,7.50
2018-03-15T10:38:12.213Z,5.83
2018-03-15T10:40:38.656Z,5.70
2018-03-15T10:43:05.125Z,5.70
2018-03-15T10:45:31.830Z,5.60
2018-03-15T10:47:58.341Z,5.43
2018-03-15T10:50:24.773Z,5.43
2018-03-15T10:52:51.253Z,4.57
2018-03-15T10:55:17.694Z,4.73
2018-03-15T10:57:44.112Z,4.90
2018-03-15T11:00:10.532Z,4.93
2018-03-15T11:02:43.053Z,5.07
2018-03-15T11:05:15.701Z,5.03
2018-03-15T11:07:42.198Z,4.80
2018-03-15T11:10:08.628Z,4.73
2018-03-15T11:12:35.283Z,4.77
2018-03-15T11:15:01.702Z,4.43
2018-03-15T11:17:28.178Z,3.97
2018-03-15T11:19:54.650Z,4.17
2018-03-15T11:22:21.139Z,3.80
2018-03-15T11:24:47.541Z,4.17
2018-03-15T11:27:13.950Z,3.90
2018-03-15T11:29:40.377Z,4.07
2018-03-15T11:32:06.905Z,3.97
2018-03-15T11:34:33.310Z,4.10
2018-03-15T11:36:59.901Z,3.70
2018-03-15T11:39:26.303Z,4.20
2018-03-15T11:41:52.702Z,3.37
2018-03-15T11:44:19.147Z,3.50
2018-03-15T11:46:45.561Z,3.30
2018-03-15T11:49:11.969Z,3.40
2018-03-15T11:51:38.418Z,3.80
2018-03-15T11:54:04.859Z,3.47
2018-03-15T11:56:31.333Z,3.30
2018-03-15T11:58:57.757Z,3.67
2018-03-15T12:01:24.213Z,3.37
2018-03-15T12:03:50.631Z,3.63
2018-03-15T12:06:17.103Z,4.03
2018-03-15T12:08:43.519Z,4.03
2018-03-15T12:11:15.150Z,4.30
2018-03-15T12:13:43.139Z,4.37
2018-03-15T12:16:09.644Z,4.10
2018-03-15T12:18:36.087Z,4.80
2018-03-15T12:21:02.471Z,5.30
2018-03-15T12:23:28.885Z,3.97
2018-03-15T12:25:55.272Z,3.63
2018-03-15T12:28:21.682Z,4.00
2018-03-15T12:30:48.070Z,3.90
2018-03-15T12:33:14.422Z,3.70
2018-03-15T12:35:40.842Z,3.57
2018-03-15T12:38:07.211Z,4.40
2018-03-15T12:40:33.792Z,3.63
2018-03-15T12:43:00.206Z,4.07
2018-03-15T12:45:26.638Z,3.80
2018-03-15T12:47:53.125Z,3.80
2018-03-15T12:50:19.588Z,3.43
2018-03-15T12:52:45.978Z,3.90
2018-03-15T12:55:12.430Z,3.70
2018-03-15T12:57:38.841Z,3.57
2018-03-15T13:00:05.265Z,3.70
2018-03-15T13:02:31.845Z,3.80
2018-03-15T13:04:58.270Z,3.80
2018-03-15T13:07:24.662Z,3.93
2018-03-15T13:09:51.254Z,3.70
2018-03-15T13:12:17.694Z,3.73
2018-03-15T13:14:44.080Z,3.70
2018-03-15T13:17:10.517Z,3.73
2018-03-15T13:19:36.937Z,3.60
2018-03-15T13:22:03.525Z,3.80
2018-03-15T13:24:30.030Z,4.00
2018-03-15T13:26:56.474Z,3.60
2018-03-15T13:29:22.855Z,3.23
2018-03-15T13:31:49.257Z,3.60
2018-03-15T13:34:15.665Z,3.50
2018-03-15T13:36:44.301Z,3.80
2018-03-15T13:39:11.737Z,3.67
2018-03-15T13:41:38.126Z,3.80
2018-03-15T13:44:04.533Z,3.83
2018-03-15T13:46:30.998Z,3.80
2018-03-15T13:48:57.431Z,4.00
2018-03-15T13:51:23.857Z,3.90
2018-03-15T13:53:50.334Z,3.47
2018-03-15T13:56:16.774Z,3.30
2018-03-15T13:58:43.178Z,3.70
2018-03-15T14:01:10.138Z,3.37
2018-03-15T14:03:37.288Z,3.97
2018-03-15T14:06:03.794Z,4.23
2018-03-15T14:08:30.193Z,4.47
2018-03-15T14:10:56.595Z,4.30
2018-03-15T14:13:22.934Z,3.30
2018-03-15T14:15:50.198Z,3.50
2018-03-15T14:18:16.682Z,3.00
2018-03-15T14:20:43.189Z,3.80
2018-03-15T14:23:09.766Z,3.57
2018-03-15T14:25:36.310Z,4.13
2018-03-15T14:28:02.969Z,4.47
2018-03-15T14:30:29.326Z,4.43
2018-03-15T14:32:55.687Z,4.03
2018-03-15T14:35:22.121Z,3.80
2018-03-15T14:37:48.470Z,3.30
2018-03-15T14:40:15.122Z,3.93
2018-03-15T14:42:41.494Z,4.47
2018-03-15T14:45:07.902Z,5.27
2018-03-15T14:47:34.306Z,4.30
2018-03-15T14:50:00.756Z,4.40
2018-03-15T14:52:27.154Z,4.23
2018-03-15T14:54:53.553Z,4.20
2018-03-15T14:57:19.941Z,4.70
2018-03-15T14:59:46.427Z,3.83
2018-03-15T15:02:12.865Z,3.77
2018-03-15T15:04:39.206Z,4.07
2018-03-15T15:07:05.650Z,3.77
2018-03-15T15:09:32.121Z,4.97
2018-03-15T15:11:58.581Z,4.73
2018-03-15T15:14:25.034Z,4.23
2018-03-15T15:16:51.646Z,5.17
2018-03-15T15:19:18.102Z,5.37
2018-03-15T15:21:44.514Z,5.70
2018-03-15T15:24:10.962Z,8.23
2018-03-15T15:26:37.655Z,9.00
2018-03-15T15:29:04.101Z,7.63
2018-03-15T15:31:30.598Z,5.80
2018-03-15T15:33:57.099Z,6.00
2018-03-15T15:36:23.549Z,6.90
2018-03-15T15:38:50.018Z,8.33
2018-03-15T15:41:16.442Z,7.37
2018-03-15T15:43:42.966Z,7.67
2018-03-15T15:46:09.454Z,7.07
2018-03-15T15:48:35.861Z,8.63
2018-03-15T15:51:02.339Z,9.97
2018-03-15T15:53:28.843Z,9.00
2018-03-15T15:55:55.338Z,9.17
2018-03-15T15:58:21.713Z,9.07
2018-03-15T16:00:48.221Z,8.30
2018-03-15T16:03:14.687Z,6.97
2018-03-15T16:05:41.202Z,6.50
2018-03-15T16:08:08.653Z,6.57
2018-03-15T16:10:35.235Z,6.13
2018-03-15T16:13:01.730Z,5.50
2018-03-15T16:15:28.227Z,5.37
2018-03-15T16:17:54.844Z,5.70
2018-03-15T16:20:21.251Z,7.60
2018-03-15T16:22:47.749Z,8.70
2018-03-15T16:25:14.182Z,9.80
2018-03-15T16:27:40.610Z,11.40
2018-03-15T16:30:07.095Z,14.67
2018-03-15T16:32:33.560Z,14.30
2018-03-15T16:34:59.934Z,13.27
2018-03-15T16:37:26.363Z,12.17
2018-03-15T16:39:52.845Z,12.23
2018-03-15T16:42:19.413Z,13.27
2018-03-15T16:44:45.995Z,13.57
2018-03-15T16:47:13.079Z,13.77
2018-03-15T16:49:40.065Z,14.30
2018-03-15T16:52:07.340Z,17.70
2018-03-15T16:54:34.173Z,16.47
2018-03-15T16:57:04.560Z,18.77
2018-03-15T16:59:31.405Z,16.97
2018-03-15T17:01:58.034Z,14.93
2018-03-15T17:04:24.705Z,10.93
2018-03-15T17:06:51.242Z,9.07
2018-03-15T17:09:17.977Z,9.53
2018-03-15T17:11:44.570Z,11.03
2018-03-15T17:14:11.834Z,11.50
2018-03-15T17:16:38.710Z,9.00
2018-03-15T17:19:05.306Z,9.83
2018-03-15T17:21:31.687Z,8.93
2018-03-15T17:23:58.175Z,8.33
2018-03-15T17:26:24.746Z,9.07
2018-03-15T17:28:52.121Z,10.10
2018-03-15T17:31:18.601Z,10.50
2018-03-15T17:33:45.013Z,10.43
2018-03-15T17:36:11.448Z,9.90
2018-03-15T17:38:37.839Z,9.80
2018-03-15T17:41:05.025Z,10.50
2018-03-15T17:43:31.486Z,10.03
2018-03-15T17:45:58.066Z,11.70
2018-03-15T17:48:24.553Z,14.07
2018-03-15T17:50:50.914Z,15.70
2018-03-15T17:53:17.405Z,16.20
2018-03-15T17:55:43.918Z,15.33
2018-03-15T17:58:10.777Z,12.70
2018-03-15T18:00:37.179Z,9.03
2018-03-15T18:03:03.617Z,7.10
2018-03-15T18:05:30.054Z,7.73
2018-03-15T18:07:56.479Z,8.20
2018-03-15T18:10:22.911Z,8.27
2018-03-15T18:12:49.324Z,10.50
2018-03-15T18:15:15.780Z,9.70
2018-03-15T18:17:42.244Z,15.43
2018-03-15T18:20:08.738Z,14.43
2018-03-15T18:22:35.210Z,14.87
2018-03-15T18:25:01.695Z,17.90
2018-03-15T18:27:28.126Z,17.33
2018-03-15T18:29:54.558Z,16.43
2018-03-15T18:32:20.973Z,16.90
2018-03-15T18:34:47.518Z,16.37
2018-03-15T18:37:13.937Z,16.47
2018-03-15T18:39:40.326Z,19.83
2018-03-15T18:42:06.842Z,20.10
2018-03-15T18:44:33.297Z,19.10
2018-03-15T18:46:59.710Z,15.30
2018-03-15T18:49:26.216Z,14.33
2018-03-15T18:51:52.655Z,12.43
2018-03-15T18:54:29.859Z,13.10
2018-03-15T18:56:59.422Z,13.03
2018-03-15T18:59:27.224Z,11.83
2018-03-15T19:04:35.687Z,13.53
2018-03-15T19:07:02.993Z,17.00
2018-03-15T19:09:29.398Z,11.40
2018-03-15T19:11:56.734Z,9.83
2018-03-15T19:14:23.162Z,11.70
2018-03-15T19:16:49.630Z,11.20
2018-03-15T19:19:16.063Z,10.33
2018-03-15T19:21:42.465Z,9.20
2018-03-15T19:24:08.902Z,11.93
2018-03-15T19:26:35.314Z,9.23
2018-03-15T19:29:01.768Z,8.93
2018-03-15T19:31:28.158Z,8.90
2018-03-15T19:33:54.649Z,9.27
2018-03-15T19:36:21.046Z,8.87
2018-03-15T19:38:47.503Z,8.63
2018-03-15T19:41:13.954Z,7.57
2018-03-15T19:43:40.382Z,7.00
2018-03-15T19:46:06.799Z,7.33
2018-03-15T19:48:33.251Z,7.03
2018-03-15T19:50:59.626Z,7.90
2018-03-15T19:53:26.039Z,6.80
2018-03-15T19:55:52.457Z,6.80
2018-03-15T19:58:18.838Z,6.70
2018-03-15T20:00:45.279Z,6.70
2018-03-15T20:03:11.658Z,6.90
2018-03-15T20:05:38.022Z,6.80
2018-03-15T20:08:04.561Z,5.97
2018-03-15T20:10:32.083Z,5.93
2018-03-15T20:12:58.618Z,6.20
2018-03-15T20:15:25.094Z,6.90
2018-03-15T20:17:51.449Z,7.37
2018-03-15T20:20:17.866Z,6.83
2018-03-15T20:22:50.392Z,6.60
2018-03-15T20:25:18.012Z,6.77
2018-03-15T20:27:50.430Z,6.73
2018-03-15T20:30:16.917Z,6.57
2018-03-15T20:32:49.488Z,6.23
2018-03-15T20:35:15.909Z,6.17
2018-03-15T20:37:42.297Z,6.10
2018-03-15T20:40:14.755Z,5.87
2018-03-15T20:42:41.409Z,6.40
2018-03-15T20:45:07.994Z,6.70
2018-03-15T20:47:40.521Z,6.60
2018-03-15T20:50:06.966Z,6.47
2018-03-15T20:52:33.314Z,7.93
2018-03-15T20:54:59.715Z,6.53
2018-03-15T20:57:26.178Z,5.87
2018-03-15T20:59:52.669Z,6.23
2018-03-15T21:02:19.066Z,4.87
2018-03-15T21:04:45.429Z,6.00
2018-03-15T21:07:11.846Z,5.13
2018-03-15T21:09:38.261Z,4.80
2018-03-15T21:12:04.729Z,5.13
2018-03-15T21:14:31.150Z,4.97
2018-03-15T21:16:57.727Z,6.33
2018-03-15T21:19:24.159Z,5.20
2018-03-15T21:21:50.572Z,5.53
2018-03-15T21:24:17.025Z,5.17
2018-03-15T21:26:43.533Z,5.40
2018-03-15T21:29:09.948Z,5.80
2018-03-15T21:31:36.382Z,5.80
2018-03-15T21:34:02.826Z,5.90
2018-03-15T21:36:29.303Z,6.50
2018-03-15T21:38:55.746Z,7.17
2018-03-15T21:41:22.218Z,7.03
2018-03-15T21:43:48.618Z,6.63
2018-03-15T21:46:15.078Z,6.37
2018-03-15T21:48:41.518Z,6.30
2018-03-15T21:51:07.938Z,7.33
2018-03-15T21:53:34.389Z,7.60
2018-03-15T21:56:00.739Z,9.70
2018-03-15T21:58:27.217Z,9.20
2018-03-15T22:00:53.690Z,8.60
2018-03-15T22:03:20.029Z,8.80
2018-03-15T22:05:46.457Z,8.20
2018-03-15T22:08:12.885Z,8.73
2018-03-15T22:10:39.277Z,7.90
2018-03-15T22:13:05.722Z,6.07
2018-03-15T22:15:32.157Z,5.97
2018-03-15T22:17:58.641Z,5.97
2018-03-15T22:20:25.075Z,6.00
2018-03-15T22:22:51.448Z,5.97
2018-03-15T22:25:17.886Z,5.93
2018-03-15T22:27:44.298Z,5.83
2018-03-15T22:30:11.115Z,6.93
2018-03-15T22:32:37.506Z,5.67
2018-03-15T22:35:03.922Z,6.40
2018-03-15T22:37:30.274Z,6.80
2018-03-15T22:39:56.745Z,6.87
2018-03-15T22:42:23.186Z,6.70
2018-03-15T22:44:49.603Z,7.10
2018-03-15T22:47:16.038Z,7.40
2018-03-15T22:49:42.490Z,8.50
2018-03-15T22:52:08.922Z,8.37
2018-03-15T22:54:35.324Z,8.07
2018-03-15T22:57:01.724Z,7.43
2018-03-15T22:59:28.137Z,8.77
2018-03-15T23:01:54.650Z,7.87
2018-03-15T23:04:21.101Z,12.33
2018-03-15T23:06:47.528Z,10.07
2018-03-15T23:09:13.918Z,8.20
2018-03-15T23:11:40.340Z,8.70
2018-03-15T23:14:06.706Z,8.90
2018-03-15T23:16:33.098Z,8.47
2018-03-15T23:18:59.734Z,8.27
2018-03-15T23:21:26.102Z,8.63
2018-03-15T23:23:52.428Z,7.10
2018-03-15T23:26:18.820Z,5.67
2018-03-15T23:28:45.182Z,5.47
2018-03-15T23:31:11.646Z,5.00
2018-03-15T23:33:38.070Z,5.57
2018-03-15T23:36:04.470Z,7.30
2018-03-15T23:38:30.842Z,7.93
2018-03-15T23:40:57.141Z,8.23
2018-03-15T23:43:23.533Z,8.77
2018-03-15T23:45:49.917Z,8.37
2018-03-15T23:48:16.291Z,9.10
2018-03-15T23:50:42.726Z,8.90
2018-03-15T23:53:09.157Z,7.87
2018-03-15T23:55:35.578Z,7.43
2018-03-15T23:58:01.922Z,8.07
